createdAt,value
2022-10-01T00:00:31.548Z,100702.56
2022-10-01T00:03:25.348Z,100691.69
2022-10-01T00:06:05.036Z,100695.63
2022-10-01T00:08:37.456Z,100692.78
2022-10-01T00:11:15.287Z,100685.78
2022-10-01T00:13:47.908Z,100684.56
2022-10-01T00:16:25.734Z,100682.78
2022-10-01T00:18:58.311Z,100684.31
2022-10-01T00:21:33.136Z,100682.63
2022-10-01T00:24:07.668Z,100679.09
2022-10-01T00:26:41.031Z,100682.09
2022-10-01T00:29:16.268Z,100687.94
2022-10-01T00:31:51.796Z,100682.88
2022-10-01T00:34:23.670Z,100685.19
2022-10-01T00:36:55.818Z,100670.31
2022-10-01T00:39:27.467Z,100676.00
2022-10-01T00:41:59.648Z,100670.09
2022-10-01T00:44:35.456Z,100669.19
2022-10-01T00:47:23.589Z,100662.22
2022-10-01T00:50:00.174Z,100654.09
2022-10-01T00:52:36.430Z,100659.63
2022-10-01T00:55:15.070Z,100657.47
2022-10-01T00:57:48.591Z,100654.56
2022-10-01T01:00:20.837Z,100651.06
2022-10-01T01:02:55.609Z,100656.94
2022-10-01T01:05:28.311Z,100649.38
2022-10-01T01:08:02.048Z,100655.03
2022-10-01T01:10:38.068Z,100653.94
2022-10-01T01:13:21.247Z,100653.06
2022-10-01T01:16:02.687Z,100646.66
2022-10-01T01:18:44.848Z,100646.84
2022-10-01T01:21:24.730Z,100645.53
2022-10-01T01:24:33.148Z,100638.66
2022-10-01T01:27:36.048Z,100641.81
2022-10-01T01:30:15.031Z,100632.47
2022-10-01T01:32:53.807Z,100638.44
2022-10-01T01:35:33.347Z,100629.94
2022-10-01T01:38:11.687Z,100625.88
2022-10-01T01:40:51.928Z,100625.78
2022-10-01T01:43:27.547Z,100623.44
2022-10-01T01:46:04.951Z,100619.31
2022-10-01T01:48:39.037Z,100622.06
2022-10-01T01:51:18.069Z,100619.28
2022-10-01T01:53:49.847Z,100617.75
2022-10-01T01:56:21.849Z,100610.00
2022-10-01T01:58:54.907Z,100604.84
2022-10-01T02:01:42.100Z,100613.13
2022-10-01T02:04:22.271Z,100610.22
2022-10-01T02:07:17.013Z,100618.25
2022-10-01T02:09:59.209Z,100605.66
2022-10-01T02:12:43.808Z,100611.22
2022-10-01T02:15:24.075Z,100609.16
2022-10-01T02:18:06.668Z,100607.97
2022-10-01T02:20:42.889Z,100604.09
2022-10-01T02:23:18.648Z,100611.97
2022-10-01T02:25:54.448Z,100608.06
2022-10-01T02:28:28.273Z,100604.88
2022-10-01T02:31:02.542Z,100604.22
2022-10-01T02:33:39.468Z,100605.06
2022-10-01T02:36:14.475Z,100614.44
2022-10-01T02:38:50.948Z,100612.16
2022-10-01T02:41:29.791Z,100606.28
2022-10-01T02:44:06.927Z,100605.25
2022-10-01T02:46:47.071Z,100598.91
2022-10-01T02:49:22.567Z,100598.47
2022-10-01T02:52:02.907Z,100598.09
2022-10-01T02:54:41.008Z,100595.09
2022-10-01T02:57:27.748Z,100593.41
2022-10-01T03:00:22.887Z,100597.69
2022-10-01T03:02:54.993Z,100591.81
2022-10-01T03:05:30.312Z,100592.41
2022-10-01T03:08:02.288Z,100590.28
2022-10-01T03:10:35.092Z,100586.66
2022-10-01T03:13:07.723Z,100577.72
2022-10-01T03:15:57.924Z,100576.41
2022-10-01T03:18:29.907Z,100574.59
2022-10-01T03:21:04.967Z,100574.44
2022-10-01T03:23:36.819Z,100576.34
2022-10-01T03:26:09.740Z,100562.53
2022-10-01T03:28:41.620Z,100563.41
2022-10-01T03:31:15.008Z,100566.44
2022-10-01T03:33:46.910Z,100563.16
2022-10-01T03:36:21.520Z,100561.72
2022-10-01T03:38:53.083Z,100542.47
2022-10-01T03:41:25.410Z,100548.25
2022-10-01T03:44:00.403Z,100541.41
2022-10-01T03:46:33.469Z,100539.50
2022-10-01T03:49:05.572Z,100540.34
2022-10-01T03:51:40.834Z,100529.75
2022-10-01T03:54:13.430Z,100531.59
2022-10-01T03:56:46.202Z,100531.25
2022-10-01T03:59:32.839Z,100536.53
2022-10-01T04:02:05.014Z,100536.31
2022-10-01T04:04:36.569Z,100531.91
2022-10-01T04:07:20.833Z,100528.41
2022-10-01T04:09:52.799Z,100526.56
2022-10-01T04:12:35.003Z,100524.88
2022-10-01T04:15:06.520Z,100533.16
2022-10-01T04:17:42.710Z,100530.31
2022-10-01T04:20:17.679Z,100526.41
2022-10-01T04:22:52.292Z,100517.78
2022-10-01T04:25:23.899Z,100509.06
2022-10-01T04:28:01.199Z,100508.63
2022-10-01T04:30:35.623Z,100514.47
2022-10-01T04:33:09.570Z,100513.31
2022-10-01T04:35:41.238Z,100523.56
2022-10-01T04:38:19.429Z,100504.53
2022-10-01T04:40:51.660Z,100510.88
2022-10-01T04:43:23.711Z,100507.88
2022-10-01T04:45:55.271Z,100508.34
2022-10-01T04:48:27.741Z,100513.69
2022-10-01T04:50:59.259Z,100505.75
2022-10-01T04:53:33.941Z,100503.06
2022-10-01T04:56:11.140Z,100498.09
2022-10-01T04:58:43.191Z,100504.66
2022-10-01T05:01:14.830Z,100510.94
2022-10-01T05:03:46.919Z,100498.09
2022-10-01T05:06:31.002Z,100500.00
2022-10-01T05:09:05.749Z,100493.03
2022-10-01T05:11:37.552Z,100490.19
2022-10-01T05:14:09.809Z,100490.25
2022-10-01T05:16:41.277Z,100491.91
2022-10-01T05:19:13.701Z,100494.88
2022-10-01T05:21:46.438Z,100494.38
2022-10-01T05:24:21.261Z,100487.50
2022-10-01T05:26:54.402Z,100490.88
2022-10-01T05:29:26.479Z,100491.38
2022-10-01T05:31:58.313Z,100482.53
2022-10-01T05:34:30.679Z,100483.88
2022-10-01T05:37:03.120Z,100482.38
2022-10-01T05:39:38.268Z,100482.53
2022-10-01T05:42:10.319Z,100475.63
2022-10-01T05:44:46.481Z,100472.78
2022-10-01T05:47:18.960Z,100468.50
2022-10-01T05:49:51.230Z,100468.66
2022-10-01T05:52:23.062Z,100462.16
2022-10-01T05:54:58.815Z,100460.34
2022-10-01T05:57:30.653Z,100452.00
2022-10-01T06:00:03.071Z,100454.19
2022-10-01T06:02:35.037Z,100439.63
2022-10-01T06:05:08.044Z,100434.44
2022-10-01T06:07:40.011Z,100428.28
2022-10-01T06:10:15.394Z,100432.13
2022-10-01T06:12:48.879Z,100422.56
2022-10-01T06:15:21.610Z,100422.78
2022-10-01T06:17:53.579Z,100418.09
2022-10-01T06:20:26.122Z,100417.56
2022-10-01T06:22:59.649Z,100416.22
2022-10-01T06:25:35.499Z,100413.03
2022-10-01T06:28:09.012Z,100416.06
2022-10-01T06:30:42.770Z,100408.69
2022-10-01T06:33:18.362Z,100407.31
2022-10-01T06:35:52.802Z,100402.63
2022-10-01T06:38:26.673Z,100407.00
2022-10-01T06:41:04.277Z,100400.09
2022-10-01T06:43:36.730Z,100398.25
2022-10-01T06:46:09.535Z,100410.84
2022-10-01T06:48:41.313Z,100399.22
2022-10-01T06:51:13.691Z,100399.06
2022-10-01T06:53:42.790Z,100389.81
2022-10-01T06:56:17.720Z,100375.75
2022-10-01T06:58:49.610Z,100379.91
2022-10-01T07:01:22.185Z,100375.25
2022-10-01T07:03:54.749Z,100365.84
2022-10-01T07:06:27.069Z,100370.88
2022-10-01T07:08:59.194Z,100372.03
2022-10-01T07:11:34.334Z,100357.44
2022-10-01T07:14:06.340Z,100359.63
2022-10-01T07:16:40.898Z,100364.09
2022-10-01T07:19:13.010Z,100350.00
2022-10-01T07:21:47.200Z,100353.50
2022-10-01T07:24:19.599Z,100345.47
2022-10-01T07:26:55.870Z,100337.22
2022-10-01T07:29:28.211Z,100337.19
2022-10-01T07:32:01.716Z,100328.13
2022-10-01T07:34:34.093Z,100325.09
2022-10-01T07:37:06.661Z,100315.84
2022-10-01T07:39:38.600Z,100318.41
2022-10-01T07:42:13.780Z,100312.38
2022-10-01T07:44:45.740Z,100308.97
2022-10-01T07:47:18.161Z,100315.34
2022-10-01T07:49:50.250Z,100307.19
2022-10-01T07:52:22.731Z,100302.22
2022-10-01T07:54:54.839Z,100304.78
2022-10-01T07:57:29.741Z,100304.28
2022-10-01T08:00:01.721Z,100295.06
2022-10-01T08:02:35.813Z,100291.78
2022-10-01T08:05:21.930Z,100287.50
2022-10-01T08:07:54.871Z,100285.00
2022-10-01T08:10:26.731Z,100282.22
2022-10-01T08:13:09.119Z,100275.94
2022-10-01T08:15:40.669Z,100273.25
2022-10-01T08:18:13.151Z,100271.91
2022-10-01T08:20:45.189Z,100258.00
2022-10-01T08:23:19.500Z,100260.16
2022-10-01T08:25:51.190Z,100260.22
2022-10-01T08:28:26.295Z,100249.06
2022-10-01T08:30:59.191Z,100252.41
2022-10-01T08:33:42.216Z,100260.50
2022-10-01T08:36:14.049Z,100257.72
2022-10-01T08:38:49.070Z,100260.13
2022-10-01T08:41:41.169Z,100260.50
2022-10-01T08:44:22.634Z,100255.97
2022-10-01T08:46:56.093Z,100243.31
2022-10-01T08:49:32.312Z,100245.59
2022-10-01T08:52:11.691Z,100237.56
2022-10-01T08:54:49.810Z,100240.59
2022-10-01T08:57:26.343Z,100231.50
2022-10-01T09:00:04.260Z,100241.66
2022-10-01T09:02:38.692Z,100237.66
2022-10-01T09:05:22.412Z,100229.13
2022-10-01T09:08:04.157Z,100220.00
2022-10-01T09:10:46.814Z,100214.97
2022-10-01T09:13:52.189Z,100207.84
2022-10-01T09:16:31.459Z,100212.19
2022-10-01T09:19:17.409Z,100183.69
2022-10-01T09:21:59.750Z,100180.47
2022-10-01T09:24:46.052Z,100176.59
2022-10-01T09:27:20.331Z,100173.00
2022-10-01T09:29:55.651Z,100165.63
2022-10-01T09:32:36.949Z,100159.16
2022-10-01T09:35:24.290Z,100169.13
2022-10-01T09:38:02.031Z,100158.31
2022-10-01T09:40:41.411Z,100165.47
2022-10-01T09:43:19.209Z,100158.22
2022-10-01T09:45:51.140Z,100148.13
2022-10-01T09:48:36.293Z,100147.94
2022-10-01T09:51:19.631Z,100152.41
2022-10-01T09:54:07.071Z,100142.13
2022-10-01T09:56:44.520Z,100139.06
2022-10-01T09:59:23.013Z,100137.75
2022-10-01T10:01:59.294Z,100137.25
2022-10-01T10:04:33.957Z,100135.41
2022-10-01T10:07:08.594Z,100126.19
2022-10-01T10:09:41.734Z,100131.28
2022-10-01T10:12:34.024Z,100123.41
2022-10-01T10:15:14.001Z,100124.25
2022-10-01T10:17:50.494Z,100133.50
2022-10-01T10:20:31.930Z,100126.38
2022-10-01T10:23:11.410Z,100127.84
2022-10-01T10:25:44.150Z,100125.94
2022-10-01T10:28:24.456Z,100115.44
2022-10-01T10:30:59.070Z,100123.28
2022-10-01T10:33:31.491Z,100120.34
2022-10-01T10:36:09.833Z,100114.50
2022-10-01T10:38:45.691Z,100112.66
2022-10-01T10:41:22.850Z,100111.47
2022-10-01T10:43:56.591Z,100107.13
2022-10-01T10:46:32.636Z,100107.44
2022-10-01T10:49:11.029Z,100097.22
2022-10-01T10:51:54.291Z,100100.16
2022-10-01T10:54:34.122Z,100099.63
2022-10-01T10:57:21.695Z,100086.53
2022-10-01T11:00:01.131Z,100095.47
2022-10-01T11:02:35.902Z,100107.13
2022-10-01T11:05:18.408Z,100100.66
2022-10-01T11:07:57.343Z,100105.94
2022-10-01T11:10:42.341Z,100090.53
2022-10-01T11:13:32.980Z,100086.06
2022-10-01T11:16:29.984Z,100081.97
2022-10-01T11:19:26.744Z,100077.44
2022-10-01T11:22:16.037Z,100077.72
2022-10-01T11:25:18.031Z,100077.72
2022-10-01T11:27:55.798Z,100076.19
2022-10-01T11:30:29.864Z,100073.22
2022-10-01T11:33:11.109Z,100066.25
2022-10-01T11:35:57.572Z,100067.03
2022-10-01T11:38:45.970Z,100062.03
2022-10-01T11:41:38.376Z,100059.72
2022-10-01T11:44:17.891Z,100059.59
2022-10-01T11:46:57.301Z,100064.19
2022-10-01T11:49:46.929Z,100055.31
2022-10-01T11:52:34.215Z,100061.22
2022-10-01T11:55:31.289Z,100064.66
2022-10-01T11:58:26.979Z,100063.19
2022-10-01T12:01:05.291Z,100060.59
2022-10-01T12:03:46.258Z,100062.94
2022-10-01T12:06:23.194Z,100059.41
2022-10-01T12:09:03.473Z,100068.09
2022-10-01T12:11:40.180Z,100068.09
2022-10-01T12:14:21.892Z,100057.88
2022-10-01T12:17:00.663Z,100056.22
2022-10-01T12:19:36.531Z,100061.41
2022-10-01T12:22:15.760Z,100048.78
2022-10-01T12:24:48.241Z,100053.88
2022-10-01T12:27:39.066Z,100062.63
2022-10-01T12:30:19.098Z,100057.41
2022-10-01T12:33:05.159Z,100060.56
2022-10-01T12:36:00.285Z,100064.19
2022-10-01T12:38:49.364Z,100052.47
2022-10-01T12:41:33.367Z,100055.16
2022-10-01T12:44:22.913Z,100047.16
2022-10-01T12:47:09.025Z,100045.91
2022-10-01T12:49:47.628Z,100054.53
2022-10-01T12:52:37.044Z,100044.97
2022-10-01T12:55:34.456Z,100045.72
2022-10-01T12:58:15.900Z,100048.31
2022-10-01T13:00:58.884Z,100046.84
2022-10-01T13:04:03.339Z,100040.59
2022-10-01T13:06:51.465Z,100050.03
2022-10-01T13:09:32.278Z,100046.72
2022-10-01T13:12:19.900Z,100055.72
2022-10-01T13:14:54.361Z,100056.91
2022-10-01T13:17:35.873Z,100055.41
2022-10-01T13:20:19.351Z,100045.59
2022-10-01T13:22:57.890Z,100046.44
2022-10-01T13:25:40.129Z,100045.56
2022-10-01T13:28:20.732Z,100050.00
2022-10-01T13:31:02.977Z,100040.84
2022-10-01T13:33:36.630Z,100046.28
2022-10-01T13:36:13.670Z,100051.81
2022-10-01T13:38:48.072Z,100050.22
2022-10-01T13:41:23.509Z,100044.09
2022-10-01T13:44:00.172Z,100038.50
2022-10-01T13:46:35.446Z,100047.03
2022-10-01T13:49:17.492Z,100049.97
2022-10-01T13:51:52.969Z,100049.00
2022-10-01T13:54:30.298Z,100045.56
2022-10-01T13:57:14.249Z,100045.16
2022-10-01T13:59:46.130Z,100042.19
2022-10-01T14:02:33.853Z,100041.09
2022-10-01T14:05:35.591Z,100046.28
2022-10-01T14:08:18.129Z,100046.94
2022-10-01T14:11:10.538Z,100046.53
2022-10-01T14:14:01.352Z,100040.72
2022-10-01T14:16:34.901Z,100042.84
2022-10-01T14:19:07.472Z,100036.00
2022-10-01T14:21:52.310Z,100028.84
2022-10-01T14:24:35.410Z,100029.69
2022-10-01T14:27:16.593Z,100035.47
2022-10-01T14:30:03.749Z,100041.44
2022-10-01T14:32:51.211Z,100035.06
2022-10-01T14:35:34.610Z,100031.19
2022-10-01T14:38:15.120Z,100022.97
2022-10-01T14:40:51.533Z,100028.00
2022-10-01T14:43:25.974Z,100029.94
2022-10-01T14:46:01.165Z,100030.56
2022-10-01T14:48:34.711Z,100021.66
2022-10-01T14:51:10.071Z,100029.66
2022-10-01T14:53:46.689Z,100030.16
2022-10-01T14:56:21.789Z,100026.06
2022-10-01T14:59:02.007Z,100027.63
2022-10-01T15:01:34.431Z,100028.66
2022-10-01T15:04:06.244Z,100039.09
2022-10-01T15:06:46.151Z,100034.97
2022-10-01T15:09:20.812Z,100032.03
2022-10-01T15:11:55.596Z,100033.50
2022-10-01T15:14:28.731Z,100035.44
2022-10-01T15:17:05.692Z,100042.34
2022-10-01T15:19:47.511Z,100038.88
2022-10-01T15:22:25.792Z,100041.28
2022-10-01T15:25:02.493Z,100044.84
2022-10-01T15:27:37.620Z,100039.97
2022-10-01T15:30:18.690Z,100048.25
2022-10-01T15:32:52.271Z,100051.38
2022-10-01T15:35:26.910Z,100053.69
2022-10-01T15:38:01.092Z,100048.28
2022-10-01T15:40:35.691Z,100050.72
2022-10-01T15:43:27.930Z,100049.72
2022-10-01T15:46:21.947Z,100050.56
2022-10-01T15:49:15.831Z,100053.44
2022-10-01T15:52:13.450Z,100056.38
2022-10-01T15:54:48.730Z,100062.53
2022-10-01T15:57:26.033Z,100046.34
2022-10-01T16:00:01.758Z,100050.44
2022-10-01T16:02:35.731Z,100051.81
2022-10-01T16:05:09.977Z,100055.31
2022-10-01T16:07:42.049Z,100054.88
2022-10-01T16:10:29.527Z,100055.09
2022-10-01T16:13:01.110Z,100058.81
2022-10-01T16:15:35.701Z,100059.06
2022-10-01T16:18:25.587Z,100055.56
2022-10-01T16:21:00.446Z,100062.00
2022-10-01T16:23:45.148Z,100065.03
2022-10-01T16:26:42.117Z,100069.84
2022-10-01T16:29:28.312Z,100061.06
2022-10-01T16:32:03.896Z,100080.50
2022-10-01T16:34:35.670Z,100077.94
2022-10-01T16:37:11.311Z,100090.97
2022-10-01T16:39:43.023Z,100080.00
2022-10-01T16:42:25.948Z,100090.75
2022-10-01T16:44:57.540Z,100087.69
2022-10-01T16:47:32.267Z,100090.78
2022-10-01T16:50:04.170Z,100096.69
2022-10-01T16:52:36.624Z,100092.66
2022-10-01T16:55:17.977Z,100098.78
2022-10-01T16:57:50.099Z,100100.94
2022-10-01T17:00:24.154Z,100096.97
2022-10-01T17:03:00.004Z,100104.22
2022-10-01T17:05:33.744Z,100104.84
2022-10-01T17:08:11.568Z,100108.88
2022-10-01T17:10:47.984Z,100110.28
2022-10-01T17:13:41.999Z,100109.91
2022-10-01T17:16:19.473Z,100109.91
2022-10-01T17:19:01.900Z,100103.28
2022-10-01T17:25:03.229Z,100104.81
2022-10-01T17:27:37.452Z,100113.69
2022-10-01T17:30:10.733Z,100102.81
2022-10-01T17:35:55.092Z,100112.72
2022-10-01T17:38:27.251Z,100107.50
2022-10-01T17:40:59.254Z,100110.00
2022-10-01T17:43:31.356Z,100112.13
2022-10-01T17:46:04.442Z,100113.28
2022-10-01T17:48:36.695Z,100107.13
2022-10-01T17:51:13.935Z,100124.97
2022-10-01T17:53:46.435Z,100122.28
2022-10-01T17:56:20.018Z,100115.00
2022-10-01T17:58:52.195Z,100125.88
2022-10-01T18:01:25.249Z,100127.47
2022-10-01T18:04:00.815Z,100123.81
2022-10-01T18:06:35.734Z,100133.81
2022-10-01T18:09:08.544Z,100138.63
2022-10-01T18:11:40.475Z,100144.50
2022-10-01T18:14:13.137Z,100152.41
2022-10-01T18:16:45.404Z,100160.69
2022-10-01T18:22:14.738Z,100157.25
2022-10-01T18:24:47.199Z,100166.50
2022-10-01T18:27:19.394Z,100173.19
2022-10-01T18:29:51.834Z,100168.63
2022-10-01T18:32:27.062Z,100176.09
2022-10-01T18:35:01.397Z,100182.94
2022-10-01T18:37:46.995Z,100188.78
2022-10-01T18:40:22.515Z,100193.41
2022-10-01T18:43:01.194Z,100198.69
2022-10-01T18:46:04.703Z,100208.19
2022-10-01T18:48:58.336Z,100203.34
2022-10-01T18:51:53.677Z,100204.41
2022-10-01T18:54:56.996Z,100218.25
2022-10-01T18:57:48.356Z,100222.09
2022-10-01T19:00:23.616Z,100222.25
2022-10-01T19:03:35.134Z,100232.28
2022-10-01T19:06:44.154Z,100245.63
2022-10-01T19:09:31.239Z,100246.19
2022-10-01T19:12:27.356Z,100257.78
2022-10-01T19:15:11.322Z,100255.59
2022-10-01T19:18:00.635Z,100265.81
2022-10-01T19:20:46.039Z,100267.56
2022-10-01T19:23:48.374Z,100270.06
2022-10-01T19:26:29.994Z,100276.84
2022-10-01T19:29:32.535Z,100290.25
2022-10-01T19:32:07.079Z,100289.94
2022-10-01T19:34:44.914Z,100301.09
2022-10-01T19:37:25.314Z,100298.75
2022-10-01T19:40:03.935Z,100297.47
2022-10-01T19:42:40.095Z,100304.69
2022-10-01T19:45:26.655Z,100306.47
2022-10-01T19:48:10.282Z,100303.41
2022-10-01T19:50:46.724Z,100307.00
2022-10-01T19:53:27.439Z,100311.19
2022-10-01T19:56:03.364Z,100314.34
2022-10-01T19:58:36.463Z,100320.47
2022-10-01T20:01:19.835Z,100325.22
2022-10-01T20:04:00.777Z,100323.53
2022-10-01T20:06:39.877Z,100331.56
2022-10-01T20:09:22.761Z,100339.69
2022-10-01T20:12:02.716Z,100337.31
2022-10-01T20:15:02.736Z,100344.97
2022-10-01T20:17:46.494Z,100347.88
2022-10-01T20:20:24.417Z,100358.75
2022-10-01T20:23:11.796Z,100359.97
2022-10-01T20:25:52.477Z,100364.19
2022-10-01T20:28:31.020Z,100375.41
2022-10-01T20:31:11.349Z,100380.84
2022-10-01T20:33:56.557Z,100389.22
2022-10-01T20:36:37.452Z,100397.81
2022-10-01T20:39:20.873Z,100391.81
2022-10-01T20:41:56.896Z,100395.19
2022-10-01T20:44:31.916Z,100403.97
2022-10-01T20:47:09.937Z,100407.59
2022-10-01T20:49:51.235Z,100410.63
2022-10-01T20:52:33.696Z,100411.28
2022-10-01T20:55:11.798Z,100427.09
2022-10-01T20:57:51.122Z,100415.06
2022-10-01T21:00:25.403Z,100422.66
2022-10-01T21:03:05.702Z,100426.19
2022-10-01T21:05:46.335Z,100424.00
2022-10-01T21:08:32.735Z,100426.22
2022-10-01T21:11:11.776Z,100440.31
2022-10-01T21:13:51.957Z,100440.31
2022-10-01T21:16:47.079Z,100446.53
2022-10-01T21:19:38.675Z,100452.72
2022-10-01T21:22:24.496Z,100453.94
2022-10-01T21:25:06.377Z,100464.38
2022-10-01T21:28:12.927Z,100472.44
2022-10-01T21:30:55.794Z,100474.94
2022-10-01T21:33:29.796Z,100476.78
2022-10-01T21:36:10.115Z,100476.94
2022-10-01T21:38:50.955Z,100486.66
2022-10-01T21:41:34.695Z,100492.22
2022-10-01T21:44:28.936Z,100504.84
2022-10-01T21:47:08.797Z,100499.28
2022-10-01T21:49:50.796Z,100508.50
2022-10-01T21:52:34.095Z,100504.69
2022-10-01T21:55:34.978Z,100510.16
2022-10-01T21:58:18.734Z,100515.72
2022-10-01T22:01:03.319Z,100521.25
2022-10-01T22:03:42.816Z,100515.25
2022-10-01T22:06:19.476Z,100525.66
2022-10-01T22:09:05.594Z,100534.91
2022-10-01T22:11:42.944Z,100539.44
2022-10-01T22:14:18.514Z,100546.66
2022-10-01T22:16:55.693Z,100556.56
2022-10-01T22:19:32.755Z,100544.63
2022-10-01T22:22:10.935Z,100557.41
2022-10-01T22:24:49.535Z,100559.22
2022-10-01T22:27:28.356Z,100572.84
2022-10-01T22:30:05.258Z,100574.56
2022-10-01T22:32:45.335Z,100572.53
2022-10-01T22:35:20.535Z,100587.50
2022-10-01T22:37:56.976Z,100591.03
2022-10-01T22:40:32.896Z,100589.78
2022-10-01T22:43:11.716Z,100598.69
2022-10-01T22:45:58.032Z,100595.53
2022-10-01T22:48:49.935Z,100598.88
2022-10-01T22:51:35.875Z,100605.97
2022-10-01T22:54:24.174Z,100614.34
2022-10-01T22:57:02.374Z,100625.94
2022-10-01T22:59:48.094Z,100613.34
2022-10-01T23:02:27.645Z,100615.47
2022-10-01T23:05:09.255Z,100624.56
2022-10-01T23:07:52.535Z,100622.38
2022-10-01T23:10:35.715Z,100621.22
2022-10-01T23:13:17.277Z,100637.88
2022-10-01T23:16:00.995Z,100646.06
2022-10-01T23:18:46.298Z,100639.31
2022-10-01T23:21:27.914Z,100650.44
2022-10-01T23:24:12.075Z,100656.31
2022-10-01T23:26:56.355Z,100654.97
2022-10-01T23:29:50.875Z,100659.00
2022-10-01T23:32:40.755Z,100652.25
2022-10-01T23:35:17.277Z,100665.00
2022-10-01T23:38:08.457Z,100667.69
2022-10-01T23:40:43.740Z,100675.00
2022-10-01T23:43:26.295Z,100671.81
2022-10-01T23:46:04.136Z,100670.94
2022-10-01T23:48:45.736Z,100675.69
2022-10-01T23:51:24.817Z,100677.72
2022-10-01T23:54:03.914Z,100684.69
2022-10-01T23:56:51.195Z,100679.13
2022-10-01T23:59:31.358Z,100681.00
